Terminal Aerodrome Forecast
Issued by NWS Midland/Odessa, TX

Home | Current Version | Previous Version | Text Only | Print | Product List | Glossary On
Versions: 1 2 3 4 5 6 7 8 9 10 11 12 13 14 15 16 17 18 19 20 21
737
FTUS44 KMAF 061721
TAFMAF
TAF
KMAF 061721Z 0618/0718 03014G20KT P6SM FEW250
     FM062000 05009KT P6SM BKN250
     FM070800 15009KT P6SM OVC010=

USA.gov is the U.S. government's official web portal to all federal, state and local government web resources and services.